createdAt,value
2023-05-17T00:10:00.338Z,4.70
2023-05-17T00:20:05.358Z,4.00
2023-05-17T00:30:09.905Z,1.30
2023-05-17T00:40:16.122Z,1.50
2023-05-17T00:50:19.412Z,1.20
2023-05-17T01:00:24.321Z,3.27
2023-05-17T01:10:36.978Z,3.33
2023-05-17T01:20:44.442Z,2.10
2023-05-17T01:30:52.311Z,2.30
2023-05-17T01:40:59.872Z,1.43
2023-05-17T01:51:06.269Z,2.47
2023-05-17T02:01:10.682Z,1.63
2023-05-17T02:11:15.998Z,1.70
2023-05-17T02:21:19.618Z,2.03
2023-05-17T02:31:24.941Z,1.20
2023-05-17T02:41:29.143Z,2.17
2023-05-17T02:51:35.535Z,1.47
2023-05-17T03:01:38.447Z,1.93
2023-05-17T03:11:42.953Z,2.57
2023-05-17T03:21:53.882Z,1.87
2023-05-17T03:31:58.871Z,2.87
2023-05-17T03:42:02.408Z,2.60
2023-05-17T03:52:09.119Z,2.20
2023-05-17T04:02:12.355Z,2.67
2023-05-17T04:12:16.620Z,2.73
2023-05-17T04:22:21.105Z,3.97
2023-05-17T04:32:26.038Z,3.73
2023-05-17T04:42:29.712Z,3.17
2023-05-17T04:52:36.639Z,3.17
2023-05-17T05:02:40.358Z,3.77
2023-05-17T05:12:46.647Z,4.60
2023-05-17T05:22:50.126Z,5.00
2023-05-17T05:32:56.030Z,5.17
2023-05-17T05:42:59.024Z,5.63
2023-05-17T05:53:17.494Z,6.33
2023-05-17T06:03:26.016Z,7.10
2023-05-17T06:13:30.828Z,7.97
2023-05-17T06:23:33.952Z,8.30
2023-05-17T06:33:38.226Z,8.43
2023-05-17T06:43:41.483Z,10.40
2023-05-17T06:54:05.035Z,9.17
2023-05-17T07:04:07.974Z,14.63
2023-05-17T07:14:12.307Z,18.00
2023-05-17T07:24:15.533Z,17.43
2023-05-17T07:34:19.915Z,15.83
2023-05-17T07:44:22.905Z,13.20
2023-05-17T07:54:28.215Z,9.93
2023-05-17T08:04:31.135Z,9.17
2023-05-17T08:14:35.406Z,7.47
2023-05-17T08:24:38.258Z,4.33
2023-05-17T08:34:42.407Z,4.73
2023-05-17T08:44:45.467Z,5.40
2023-05-17T08:54:50.143Z,5.23
2023-05-17T09:04:55.889Z,4.20
2023-05-17T09:15:15.009Z,3.60
2023-05-17T09:25:20.773Z,2.07
2023-05-17T09:35:30.573Z,1.30
2023-05-17T09:45:33.825Z,1.10
2023-05-17T09:55:39.477Z,0.90
2023-05-17T10:05:45.178Z,0.90
2023-05-17T10:15:50.587Z,1.47
2023-05-17T10:25:53.766Z,1.10
2023-05-17T10:36:18.742Z,1.27
2023-05-17T10:46:24.610Z,1.40
2023-05-17T10:56:31.297Z,1.00
2023-05-17T11:06:38.487Z,1.37
2023-05-17T11:26:46.987Z,1.40
2023-05-17T11:36:53.125Z,0.90
2023-05-17T11:47:03.251Z,1.10
2023-05-17T11:57:08.005Z,1.23
2023-05-17T12:07:11.091Z,1.53
2023-05-17T12:17:29.139Z,1.60
2023-05-17T12:27:31.948Z,1.97
2023-05-17T12:37:36.707Z,1.17
2023-05-17T12:47:40.045Z,1.60
2023-05-17T12:57:51.673Z,1.20
2023-05-17T13:07:54.823Z,1.03
2023-05-17T13:18:00.787Z,1.20
2023-05-17T13:28:04.802Z,1.03
2023-05-17T13:38:09.079Z,1.47
2023-05-17T13:48:12.165Z,1.20
2023-05-17T13:58:18.195Z,1.20
2023-05-17T14:08:21.503Z,1.30
2023-05-17T14:18:26.381Z,1.13
2023-05-17T14:28:29.634Z,1.20
2023-05-17T14:38:34.008Z,1.03
2023-05-17T14:48:37.518Z,0.80
2023-05-17T14:58:42.290Z,1.00
2023-05-17T15:08:45.322Z,1.07
2023-05-17T15:18:50.003Z,1.30
2023-05-17T15:28:53.077Z,0.93
2023-05-17T15:38:57.551Z,0.90
2023-05-17T15:49:00.735Z,1.00
2023-05-17T15:59:05.286Z,0.87
2023-05-17T16:09:08.698Z,0.83
2023-05-17T16:19:13.092Z,0.90
2023-05-17T16:29:16.993Z,0.80
2023-05-17T16:39:21.936Z,1.03
2023-05-17T16:49:25.066Z,0.93
2023-05-17T16:59:29.558Z,1.00
2023-05-17T17:09:32.705Z,1.20
2023-05-17T17:19:37.223Z,0.90
2023-05-17T17:29:40.427Z,1.40
2023-05-17T17:39:44.801Z,1.30
2023-05-17T17:49:48.202Z,1.00
2023-05-17T17:59:53.615Z,1.20
2023-05-17T18:09:57.146Z,0.80
2023-05-17T18:20:01.712Z,1.13
2023-05-17T18:30:05.098Z,0.80
2023-05-17T18:40:11.257Z,1.00
2023-05-17T18:50:14.366Z,1.00
2023-05-17T19:00:21.268Z,0.93
2023-05-17T19:10:24.322Z,0.90
2023-05-17T19:20:28.958Z,1.20
2023-05-17T19:30:33.091Z,1.03
2023-05-17T19:40:38.477Z,1.10
2023-05-17T19:50:41.753Z,1.87
2023-05-17T20:01:05.549Z,2.00
2023-05-17T20:11:08.825Z,1.20
2023-05-17T20:21:15.506Z,1.40
2023-05-17T20:31:18.712Z,1.30
2023-05-17T20:41:23.897Z,1.10
2023-05-17T20:51:27.491Z,1.90
2023-05-17T21:01:32.606Z,1.60
2023-05-17T21:11:35.921Z,1.57
2023-05-17T21:21:40.559Z,1.63
2023-05-17T21:31:44.222Z,1.90
2023-05-17T21:41:48.979Z,2.00
2023-05-17T21:51:51.938Z,2.20
2023-05-17T22:01:56.477Z,2.70
2023-05-17T22:11:59.920Z,1.67
2023-05-17T22:22:04.660Z,2.30
2023-05-17T22:32:08.400Z,2.20
2023-05-17T22:42:12.810Z,1.97
2023-05-17T22:52:17.566Z,1.77
2023-05-17T23:02:22.003Z,1.93
2023-05-17T23:12:26.457Z,2.07
2023-05-17T23:22:31.474Z,1.80
2023-05-17T23:32:34.944Z,1.83
2023-05-17T23:42:39.401Z,2.27
2023-05-17T23:52:43.497Z,2.47
